sensor_id;sensor_type;location;lat;lon;timestamp;P1;durP1;ratioP1;P2;durP2;ratioP2
66085;SDS011;52868;49.758;9.586;2022-08-23T00:02:01;2.58;;;1.40;;
66085;SDS011;52868;49.758;9.586;2022-08-23T00:04:32;2.67;;;1.50;;
66085;SDS011;52868;49.758;9.586;2022-08-23T00:07:01;4.70;;;1.65;;
66085;SDS011;52868;49.758;9.586;2022-08-23T00:09:28;3.85;;;1.70;;
66085;SDS011;52868;49.758;9.586;2022-08-23T00:12:14;4.00;;;1.40;;
66085;SDS011;52868;49.758;9.586;2022-08-23T00:14:46;2.30;;;1.35;;
66085;SDS011;52868;49.758;9.586;2022-08-23T00:17:16;2.15;;;1.40;;
66085;SDS011;52868;49.758;9.586;2022-08-23T00:19:43;2.75;;;1.40;;
66085;SDS011;52868;49.758;9.586;2022-08-23T00:22:10;4.22;;;1.70;;
66085;SDS011;52868;49.758;9.586;2022-08-23T00:24:36;2.55;;;1.40;;
66085;SDS011;52868;49.758;9.586;2022-08-23T00:27:07;4.53;;;1.30;;
66085;SDS011;52868;49.758;9.586;2022-08-23T00:29:43;2.35;;;1.40;;
66085;SDS011;52868;49.758;9.586;2022-08-23T00:32:25;2.25;;;1.38;;
66085;SDS011;52868;49.758;9.586;2022-08-23T00:34:52;5.80;;;1.63;;
66085;SDS011;52868;49.758;9.586;2022-08-23T00:37:19;2.72;;;1.40;;
66085;SDS011;52868;49.758;9.586;2022-08-23T00:39:45;2.15;;;1.30;;
66085;SDS011;52868;49.758;9.586;2022-08-23T00:42:13;8.45;;;1.65;;
66085;SDS011;52868;49.758;9.586;2022-08-23T00:45:19;2.80;;;1.40;;
66085;SDS011;52868;49.758;9.586;2022-08-23T00:48:11;4.20;;;1.40;;
66085;SDS011;52868;49.758;9.586;2022-08-23T00:50:40;5.40;;;1.55;;
66085;SDS011;52868;49.758;9.586;2022-08-23T00:53:17;2.30;;;1.50;;
66085;SDS011;52868;49.758;9.586;2022-08-23T00:55:47;3.90;;;1.75;;
66085;SDS011;52868;49.758;9.586;2022-08-23T00:58:17;3.95;;;1.65;;
66085;SDS011;52868;49.758;9.586;2022-08-23T01:00:45;2.03;;;1.45;;
66085;SDS011;52868;49.758;9.586;2022-08-23T01:03:12;6.05;;;1.30;;
66085;SDS011;52868;49.758;9.586;2022-08-23T01:08:12;4.13;;;1.70;;
66085;SDS011;52868;49.758;9.586;2022-08-23T01:10:39;3.05;;;1.75;;
66085;SDS011;52868;49.758;9.586;2022-08-23T01:13:46;2.03;;;1.35;;
66085;SDS011;52868;49.758;9.586;2022-08-23T01:16:29;2.80;;;1.58;;
66085;SDS011;52868;49.758;9.586;2022-08-23T01:18:58;3.88;;;1.52;;
66085;SDS011;52868;49.758;9.586;2022-08-23T01:21:32;2.45;;;1.50;;
66085;SDS011;52868;49.758;9.586;2022-08-23T01:24:07;3.20;;;1.60;;
66085;SDS011;52868;49.758;9.586;2022-08-23T01:26:34;9.75;;;1.42;;
66085;SDS011;52868;49.758;9.586;2022-08-23T01:29:04;5.97;;;1.85;;
66085;SDS011;52868;49.758;9.586;2022-08-23T01:31:31;2.72;;;1.40;;
66085;SDS011;52868;49.758;9.586;2022-08-23T01:34:00;3.58;;;1.45;;
66085;SDS011;52868;49.758;9.586;2022-08-23T01:36:33;4.95;;;1.73;;
66085;SDS011;52868;49.758;9.586;2022-08-23T01:38:59;3.10;;;1.60;;
66085;SDS011;52868;49.758;9.586;2022-08-23T01:41:25;2.58;;;1.42;;
66085;SDS011;52868;49.758;9.586;2022-08-23T01:43:51;4.57;;;1.70;;
66085;SDS011;52868;49.758;9.586;2022-08-23T01:46:18;3.10;;;1.60;;
66085;SDS011;52868;49.758;9.586;2022-08-23T01:48:46;3.07;;;1.60;;
66085;SDS011;52868;49.758;9.586;2022-08-23T01:51:13;6.57;;;1.83;;
66085;SDS011;52868;49.758;9.586;2022-08-23T01:53:41;4.20;;;1.67;;
66085;SDS011;52868;49.758;9.586;2022-08-23T01:56:07;3.38;;;1.80;;
66085;SDS011;52868;49.758;9.586;2022-08-23T01:58:33;5.53;;;1.85;;
66085;SDS011;52868;49.758;9.586;2022-08-23T02:01:00;7.32;;;1.92;;
66085;SDS011;52868;49.758;9.586;2022-08-23T02:03:26;3.05;;;1.60;;
66085;SDS011;52868;49.758;9.586;2022-08-23T02:05:53;6.13;;;1.95;;
66085;SDS011;52868;49.758;9.586;2022-08-23T02:08:19;5.13;;;1.70;;
66085;SDS011;52868;49.758;9.586;2022-08-23T02:11:08;6.85;;;1.67;;
66085;SDS011;52868;49.758;9.586;2022-08-23T02:13:35;3.03;;;1.58;;
66085;SDS011;52868;49.758;9.586;2022-08-23T02:16:01;3.72;;;1.75;;
66085;SDS011;52868;49.758;9.586;2022-08-23T02:18:26;4.43;;;1.75;;
66085;SDS011;52868;49.758;9.586;2022-08-23T02:20:54;5.50;;;2.05;;
66085;SDS011;52868;49.758;9.586;2022-08-23T02:23:20;4.70;;;1.88;;
66085;SDS011;52868;49.758;9.586;2022-08-23T02:25:46;7.10;;;2.00;;
66085;SDS011;52868;49.758;9.586;2022-08-23T02:28:13;3.38;;;1.80;;
66085;SDS011;52868;49.758;9.586;2022-08-23T02:30:39;6.35;;;1.98;;
66085;SDS011;52868;49.758;9.586;2022-08-23T02:33:04;6.65;;;1.80;;
66085;SDS011;52868;49.758;9.586;2022-08-23T02:35:30;3.53;;;1.90;;
66085;SDS011;52868;49.758;9.586;2022-08-23T02:37:57;9.65;;;2.22;;
66085;SDS011;52868;49.758;9.586;2022-08-23T02:40:27;4.82;;;1.88;;
66085;SDS011;52868;49.758;9.586;2022-08-23T02:42:53;5.75;;;1.88;;
66085;SDS011;52868;49.758;9.586;2022-08-23T02:45:18;3.60;;;1.77;;
66085;SDS011;52868;49.758;9.586;2022-08-23T02:47:45;3.85;;;1.90;;
66085;SDS011;52868;49.758;9.586;2022-08-23T02:50:12;4.20;;;2.15;;
66085;SDS011;52868;49.758;9.586;2022-08-23T02:52:37;2.28;;;1.40;;
66085;SDS011;52868;49.758;9.586;2022-08-23T02:55:03;5.47;;;1.67;;
66085;SDS011;52868;49.758;9.586;2022-08-23T02:57:30;3.28;;;2.08;;
66085;SDS011;52868;49.758;9.586;2022-08-23T02:59:55;6.78;;;2.13;;
66085;SDS011;52868;49.758;9.586;2022-08-23T03:02:22;4.22;;;1.83;;
66085;SDS011;52868;49.758;9.586;2022-08-23T03:04:47;4.78;;;1.63;;
66085;SDS011;52868;49.758;9.586;2022-08-23T03:07:13;2.65;;;1.77;;
66085;SDS011;52868;49.758;9.586;2022-08-23T03:09:39;4.82;;;2.25;;
66085;SDS011;52868;49.758;9.586;2022-08-23T03:12:05;11.52;;;1.90;;
66085;SDS011;52868;49.758;9.586;2022-08-23T03:14:30;3.65;;;2.00;;
66085;SDS011;52868;49.758;9.586;2022-08-23T03:16:56;5.55;;;2.67;;
66085;SDS011;52868;49.758;9.586;2022-08-23T03:19:22;3.97;;;1.90;;
66085;SDS011;52868;49.758;9.586;2022-08-23T03:21:48;6.18;;;1.80;;
66085;SDS011;52868;49.758;9.586;2022-08-23T03:24:14;5.15;;;2.17;;
66085;SDS011;52868;49.758;9.586;2022-08-23T03:26:40;3.95;;;2.00;;
66085;SDS011;52868;49.758;9.586;2022-08-23T03:29:07;3.20;;;1.60;;
66085;SDS011;52868;49.758;9.586;2022-08-23T03:31:34;3.15;;;1.70;;
66085;SDS011;52868;49.758;9.586;2022-08-23T03:34:00;6.10;;;2.33;;
66085;SDS011;52868;49.758;9.586;2022-08-23T03:36:28;8.32;;;2.10;;
66085;SDS011;52868;49.758;9.586;2022-08-23T03:38:53;4.63;;;1.90;;
66085;SDS011;52868;49.758;9.586;2022-08-23T03:41:19;8.18;;;2.05;;
66085;SDS011;52868;49.758;9.586;2022-08-23T03:43:45;4.32;;;1.90;;
66085;SDS011;52868;49.758;9.586;2022-08-23T03:46:10;3.80;;;2.08;;
66085;SDS011;52868;49.758;9.586;2022-08-23T03:48:48;4.90;;;2.30;;
66085;SDS011;52868;49.758;9.586;2022-08-23T03:51:15;3.65;;;2.00;;
66085;SDS011;52868;49.758;9.586;2022-08-23T03:53:42;4.15;;;1.77;;
66085;SDS011;52868;49.758;9.586;2022-08-23T03:56:09;2.55;;;1.65;;
66085;SDS011;52868;49.758;9.586;2022-08-23T03:58:34;3.67;;;1.83;;
66085;SDS011;52868;49.758;9.586;2022-08-23T04:01:00;7.80;;;2.08;;
66085;SDS011;52868;49.758;9.586;2022-08-23T04:03:25;3.72;;;2.10;;
66085;SDS011;52868;49.758;9.586;2022-08-23T04:05:51;3.33;;;2.05;;
66085;SDS011;52868;49.758;9.586;2022-08-23T04:08:17;5.43;;;2.17;;
66085;SDS011;52868;49.758;9.586;2022-08-23T04:10:42;5.97;;;2.00;;
66085;SDS011;52868;49.758;9.586;2022-08-23T04:13:09;3.50;;;1.90;;
66085;SDS011;52868;49.758;9.586;2022-08-23T04:15:35;6.30;;;2.30;;
66085;SDS011;52868;49.758;9.586;2022-08-23T04:18:01;3.70;;;1.73;;
66085;SDS011;52868;49.758;9.586;2022-08-23T04:20:28;3.40;;;1.92;;
66085;SDS011;52868;49.758;9.586;2022-08-23T04:22:54;8.70;;;2.20;;
66085;SDS011;52868;49.758;9.586;2022-08-23T04:25:21;5.22;;;2.00;;
66085;SDS011;52868;49.758;9.586;2022-08-23T04:27:47;5.25;;;2.08;;
66085;SDS011;52868;49.758;9.586;2022-08-23T04:30:13;4.18;;;1.83;;
66085;SDS011;52868;49.758;9.586;2022-08-23T04:32:39;5.07;;;2.00;;
66085;SDS011;52868;49.758;9.586;2022-08-23T04:35:05;4.07;;;2.13;;
66085;SDS011;52868;49.758;9.586;2022-08-23T04:37:30;3.58;;;1.73;;
66085;SDS011;52868;49.758;9.586;2022-08-23T04:39:56;3.55;;;1.98;;
66085;SDS011;52868;49.758;9.586;2022-08-23T04:42:40;4.28;;;2.05;;
66085;SDS011;52868;49.758;9.586;2022-08-23T04:45:06;4.18;;;2.00;;
66085;SDS011;52868;49.758;9.586;2022-08-23T04:47:33;3.38;;;1.70;;
66085;SDS011;52868;49.758;9.586;2022-08-23T04:50:00;5.22;;;2.30;;
66085;SDS011;52868;49.758;9.586;2022-08-23T04:52:26;3.92;;;1.80;;
66085;SDS011;52868;49.758;9.586;2022-08-23T04:54:52;4.68;;;1.85;;
66085;SDS011;52868;49.758;9.586;2022-08-23T04:57:18;5.22;;;2.28;;
66085;SDS011;52868;49.758;9.586;2022-08-23T04:59:43;4.03;;;1.90;;
66085;SDS011;52868;49.758;9.586;2022-08-23T05:02:09;5.70;;;1.95;;
66085;SDS011;52868;49.758;9.586;2022-08-23T05:04:34;4.78;;;1.90;;
66085;SDS011;52868;49.758;9.586;2022-08-23T05:07:00;3.28;;;1.70;;
66085;SDS011;52868;49.758;9.586;2022-08-23T05:09:26;7.07;;;2.00;;
66085;SDS011;52868;49.758;9.586;2022-08-23T05:11:52;5.88;;;1.90;;
66085;SDS011;52868;49.758;9.586;2022-08-23T05:14:17;5.85;;;2.05;;
66085;SDS011;52868;49.758;9.586;2022-08-23T05:16:43;3.88;;;2.20;;
66085;SDS011;52868;49.758;9.586;2022-08-23T05:19:09;8.20;;;1.95;;
66085;SDS011;52868;49.758;9.586;2022-08-23T05:21:34;3.90;;;1.98;;
66085;SDS011;52868;49.758;9.586;2022-08-23T05:24:00;6.65;;;2.40;;
66085;SDS011;52868;49.758;9.586;2022-08-23T05:26:25;4.60;;;2.20;;
66085;SDS011;52868;49.758;9.586;2022-08-23T05:28:51;3.70;;;2.00;;
66085;SDS011;52868;49.758;9.586;2022-08-23T05:31:18;5.75;;;2.30;;
66085;SDS011;52868;49.758;9.586;2022-08-23T05:33:47;2.88;;;2.00;;
66085;SDS011;52868;49.758;9.586;2022-08-23T05:36:14;3.63;;;2.00;;
66085;SDS011;52868;49.758;9.586;2022-08-23T05:38:41;4.15;;;1.58;;
66085;SDS011;52868;49.758;9.586;2022-08-23T05:41:08;5.18;;;1.90;;
66085;SDS011;52868;49.758;9.586;2022-08-23T05:43:34;3.03;;;2.05;;
66085;SDS011;52868;49.758;9.586;2022-08-23T05:46:04;2.85;;;2.03;;
66085;SDS011;52868;49.758;9.586;2022-08-23T05:48:35;3.47;;;1.80;;
66085;SDS011;52868;49.758;9.586;2022-08-23T05:51:12;2.50;;;1.90;;
66085;SDS011;52868;49.758;9.586;2022-08-23T05:53:42;6.95;;;2.10;;
66085;SDS011;52868;49.758;9.586;2022-08-23T05:58:37;6.78;;;2.15;;
66085;SDS011;52868;49.758;9.586;2022-08-23T06:01:03;4.18;;;2.10;;
66085;SDS011;52868;49.758;9.586;2022-08-23T06:03:29;3.30;;;2.05;;
66085;SDS011;52868;49.758;9.586;2022-08-23T06:05:59;4.22;;;2.13;;
66085;SDS011;52868;49.758;9.586;2022-08-23T06:08:25;5.55;;;2.17;;
66085;SDS011;52868;49.758;9.586;2022-08-23T06:11:02;6.28;;;2.47;;
66085;SDS011;52868;49.758;9.586;2022-08-23T06:13:30;7.40;;;2.28;;
66085;SDS011;52868;49.758;9.586;2022-08-23T06:15:57;4.00;;;2.13;;
66085;SDS011;52868;49.758;9.586;2022-08-23T06:18:23;3.72;;;2.08;;
66085;SDS011;52868;49.758;9.586;2022-08-23T06:20:57;9.35;;;2.30;;
66085;SDS011;52868;49.758;9.586;2022-08-23T06:23:35;5.13;;;2.25;;
66085;SDS011;52868;49.758;9.586;2022-08-23T06:26:12;7.78;;;2.17;;
66085;SDS011;52868;49.758;9.586;2022-08-23T06:28:40;11.23;;;2.27;;
66085;SDS011;52868;49.758;9.586;2022-08-23T06:31:07;6.35;;;1.90;;
66085;SDS011;52868;49.758;9.586;2022-08-23T06:33:33;3.00;;;2.13;;
66085;SDS011;52868;49.758;9.586;2022-08-23T06:36:04;3.65;;;1.80;;
66085;SDS011;52868;49.758;9.586;2022-08-23T06:38:35;4.15;;;2.00;;
66085;SDS011;52868;49.758;9.586;2022-08-23T06:41:02;5.70;;;2.08;;
66085;SDS011;52868;49.758;9.586;2022-08-23T06:43:30;4.50;;;2.30;;
66085;SDS011;52868;49.758;9.586;2022-08-23T06:46:13;3.28;;;1.70;;
66085;SDS011;52868;49.758;9.586;2022-08-23T06:48:42;6.30;;;1.90;;
66085;SDS011;52868;49.758;9.586;2022-08-23T06:51:12;4.75;;;2.03;;
66085;SDS011;52868;49.758;9.586;2022-08-23T06:53:52;4.93;;;2.20;;
66085;SDS011;52868;49.758;9.586;2022-08-23T06:56:20;3.70;;;2.00;;
66085;SDS011;52868;49.758;9.586;2022-08-23T06:58:46;4.32;;;2.20;;
66085;SDS011;52868;49.758;9.586;2022-08-23T07:01:15;4.13;;;1.98;;
66085;SDS011;52868;49.758;9.586;2022-08-23T07:03:42;4.43;;;2.00;;
66085;SDS011;52868;49.758;9.586;2022-08-23T07:06:07;3.75;;;1.92;;
66085;SDS011;52868;49.758;9.586;2022-08-23T07:08:33;10.30;;;2.22;;
66085;SDS011;52868;49.758;9.586;2022-08-23T07:10:59;8.27;;;2.10;;
66085;SDS011;52868;49.758;9.586;2022-08-23T07:13:25;3.33;;;2.03;;
66085;SDS011;52868;49.758;9.586;2022-08-23T07:15:55;4.82;;;1.90;;
66085;SDS011;52868;49.758;9.586;2022-08-23T07:18:25;6.25;;;2.05;;
66085;SDS011;52868;49.758;9.586;2022-08-23T07:20:54;3.92;;;1.90;;
66085;SDS011;52868;49.758;9.586;2022-08-23T07:23:24;4.80;;;2.03;;
66085;SDS011;52868;49.758;9.586;2022-08-23T07:25:51;9.18;;;2.55;;
66085;SDS011;52868;49.758;9.586;2022-08-23T07:28:18;7.75;;;2.10;;
66085;SDS011;52868;49.758;9.586;2022-08-23T07:30:44;5.70;;;2.30;;
66085;SDS011;52868;49.758;9.586;2022-08-23T07:33:10;3.90;;;1.85;;
66085;SDS011;52868;49.758;9.586;2022-08-23T07:35:36;8.02;;;2.08;;
66085;SDS011;52868;49.758;9.586;2022-08-23T07:38:01;9.98;;;2.53;;
66085;SDS011;52868;49.758;9.586;2022-08-23T07:40:27;3.72;;;2.20;;
66085;SDS011;52868;49.758;9.586;2022-08-23T07:42:56;10.82;;;1.95;;
66085;SDS011;52868;49.758;9.586;2022-08-23T07:45:22;7.82;;;2.00;;
66085;SDS011;52868;49.758;9.586;2022-08-23T07:47:48;6.43;;;1.85;;
66085;SDS011;52868;49.758;9.586;2022-08-23T07:50:14;7.93;;;1.98;;
66085;SDS011;52868;49.758;9.586;2022-08-23T07:52:39;5.90;;;2.05;;
66085;SDS011;52868;49.758;9.586;2022-08-23T07:55:05;4.82;;;2.40;;
66085;SDS011;52868;49.758;9.586;2022-08-23T07:57:31;6.72;;;2.00;;
66085;SDS011;52868;49.758;9.586;2022-08-23T07:59:57;3.22;;;1.55;;
66085;SDS011;52868;49.758;9.586;2022-08-23T08:02:22;4.15;;;1.98;;
66085;SDS011;52868;49.758;9.586;2022-08-23T08:04:48;5.25;;;1.83;;
66085;SDS011;52868;49.758;9.586;2022-08-23T08:07:14;9.02;;;2.10;;
66085;SDS011;52868;49.758;9.586;2022-08-23T08:09:39;8.02;;;2.10;;
66085;SDS011;52868;49.758;9.586;2022-08-23T08:12:05;4.13;;;1.75;;
66085;SDS011;52868;49.758;9.586;2022-08-23T08:14:31;5.90;;;1.90;;
66085;SDS011;52868;49.758;9.586;2022-08-23T08:16:56;6.53;;;2.00;;
66085;SDS011;52868;49.758;9.586;2022-08-23T08:19:24;4.55;;;1.63;;
66085;SDS011;52868;49.758;9.586;2022-08-23T08:21:50;6.82;;;2.17;;
66085;SDS011;52868;49.758;9.586;2022-08-23T08:24:16;3.90;;;1.73;;
66085;SDS011;52868;49.758;9.586;2022-08-23T08:26:43;7.80;;;1.80;;
66085;SDS011;52868;49.758;9.586;2022-08-23T08:29:09;5.30;;;1.70;;
66085;SDS011;52868;49.758;9.586;2022-08-23T08:31:36;5.03;;;1.73;;
66085;SDS011;52868;49.758;9.586;2022-08-23T08:34:03;4.85;;;1.83;;
66085;SDS011;52868;49.758;9.586;2022-08-23T08:36:32;3.65;;;1.50;;
66085;SDS011;52868;49.758;9.586;2022-08-23T08:39:05;4.13;;;1.70;;
66085;SDS011;52868;49.758;9.586;2022-08-23T08:44:22;3.33;;;1.90;;
66085;SDS011;52868;49.758;9.586;2022-08-23T08:46:57;7.45;;;1.90;;
66085;SDS011;52868;49.758;9.586;2022-08-23T08:54:54;4.72;;;1.60;;
66085;SDS011;52868;49.758;9.586;2022-08-23T08:57:45;2.15;;;1.40;;
66085;SDS011;52868;49.758;9.586;2022-08-23T09:02:41;11.90;;;1.63;;
66085;SDS011;52868;49.758;9.586;2022-08-23T09:05:26;4.65;;;1.67;;
66085;SDS011;52868;49.758;9.586;2022-08-23T09:10:28;3.55;;;1.70;;
66085;SDS011;52868;49.758;9.586;2022-08-23T09:13:08;5.57;;;1.80;;
66085;SDS011;52868;49.758;9.586;2022-08-23T09:16:10;5.80;;;1.60;;
66085;SDS011;52868;49.758;9.586;2022-08-23T09:18:39;2.90;;;1.50;;
66085;SDS011;52868;49.758;9.586;2022-08-23T09:21:06;5.30;;;1.52;;
66085;SDS011;52868;49.758;9.586;2022-08-23T09:23:40;7.43;;;1.60;;
66085;SDS011;52868;49.758;9.586;2022-08-23T09:26:16;2.97;;;1.48;;
66085;SDS011;52868;49.758;9.586;2022-08-23T09:28:48;4.50;;;1.60;;
66085;SDS011;52868;49.758;9.586;2022-08-23T09:31:36;3.60;;;1.52;;
66085;SDS011;52868;49.758;9.586;2022-08-23T09:34:05;13.30;;;1.90;;
66085;SDS011;52868;49.758;9.586;2022-08-23T09:36:32;8.68;;;1.35;;
66085;SDS011;52868;49.758;9.586;2022-08-23T09:39:01;3.10;;;1.60;;
66085;SDS011;52868;49.758;9.586;2022-08-23T09:44:01;2.15;;;1.30;;
66085;SDS011;52868;49.758;9.586;2022-08-23T09:46:29;2.67;;;1.23;;
66085;SDS011;52868;49.758;9.586;2022-08-23T09:48:57;6.93;;;1.70;;
66085;SDS011;52868;49.758;9.586;2022-08-23T09:57:00;3.67;;;1.40;;
66085;SDS011;52868;49.758;9.586;2022-08-23T10:01:54;6.30;;;1.45;;
66085;SDS011;52868;49.758;9.586;2022-08-23T10:04:42;3.90;;;1.15;;
66085;SDS011;52868;49.758;9.586;2022-08-23T10:07:34;2.53;;;1.30;;
66085;SDS011;52868;49.758;9.586;2022-08-23T10:12:44;5.30;;;1.63;;
66085;SDS011;52868;49.758;9.586;2022-08-23T10:15:10;2.00;;;1.20;;
66085;SDS011;52868;49.758;9.586;2022-08-23T10:17:39;3.80;;;1.30;;
66085;SDS011;52868;49.758;9.586;2022-08-23T10:23:00;4.07;;;1.30;;
66085;SDS011;52868;49.758;9.586;2022-08-23T10:25:40;10.70;;;1.48;;
66085;SDS011;52868;49.758;9.586;2022-08-23T10:34:19;3.40;;;1.30;;
66085;SDS011;52868;49.758;9.586;2022-08-23T10:39:23;13.80;;;1.60;;
66085;SDS011;52868;49.758;9.586;2022-08-23T10:44:42;2.38;;;1.10;;
66085;SDS011;52868;49.758;9.586;2022-08-23T10:47:17;4.47;;;1.38;;
66085;SDS011;52868;49.758;9.586;2022-08-23T10:49:51;4.57;;;1.70;;
66085;SDS011;52868;49.758;9.586;2022-08-23T10:52:53;3.78;;;1.50;;
66085;SDS011;52868;49.758;9.586;2022-08-23T10:55:15;9.60;;;1.58;;
66085;SDS011;52868;49.758;9.586;2022-08-23T10:57:59;2.50;;;1.30;;
66085;SDS011;52868;49.758;9.586;2022-08-23T11:00:29;4.72;;;1.20;;
66085;SDS011;52868;49.758;9.586;2022-08-23T11:03:10;1.52;;;1.10;;
66085;SDS011;52868;49.758;9.586;2022-08-23T11:09:02;6.13;;;1.43;;
66085;SDS011;52868;49.758;9.586;2022-08-23T11:16:56;5.57;;;1.30;;
66085;SDS011;52868;49.758;9.586;2022-08-23T11:22:16;1.73;;;1.20;;
66085;SDS011;52868;49.758;9.586;2022-08-23T11:24:48;3.10;;;1.23;;
66085;SDS011;52868;49.758;9.586;2022-08-23T11:27:24;3.92;;;1.10;;
66085;SDS011;52868;49.758;9.586;2022-08-23T11:29:55;2.17;;;1.30;;
66085;SDS011;52868;49.758;9.586;2022-08-23T11:32:27;6.32;;;1.50;;
